Time;durP1;ratioP1;P1;durP2;ratioP2;P2;SDS_P1;SDS_P2;PMS_P1;PMS_P2;Temp;Humidity;BMP_temperature;BMP_pressure;BME280_temperature;BME280_humidity;BME280_pressure;Samples;Min_cycle;Max_cycle;Signal;HPM_P1;HPM_P2
2021/08/13 00:01:34;;;;;;;;;;;;;;;20.40;65.63;96895.13;5130217;27;19980;-80
2021/08/13 00:04:00;;;;;;;;;;;;;;;20.39;65.58;96898.84;5124562;27;20340;-80
2021/08/13 00:06:26;;;;;;;;;;;;;;;20.36;65.96;96894.84;5120602;27;19967;-82
2021/08/13 00:08:52;;;;;;;;;;;;;;;20.35;66.05;96897.78;5121881;27;20014;-80
2021/08/13 00:11:17;;;;;;;;;;;;;;;20.32;66.08;96893.00;5117967;27;20363;-80
2021/08/13 00:13:43;;;;;;;;;;;;;;;20.31;65.92;96897.53;5100122;28;19968;-80
2021/08/13 00:16:09;;;;;;;;;;;;;;;20.29;66.21;96891.69;5122037;27;20156;-80
2021/08/13 00:18:35;;;;;;;;;;;;;;;20.28;65.88;96895.38;5125737;27;19968;-80
2021/08/13 00:21:01;;;;;;;;;;;;;;;20.26;65.43;96889.53;5104993;27;19980;-80
2021/08/13 00:23:27;;;;;;;;;;;;;;;20.24;65.55;96892.50;5113442;28;19964;-80
2021/08/13 00:26:00;;;;;;;;;;;;;;;20.24;66.30;96910.31;5124456;27;19972;-80
2021/08/13 00:28:26;;;;;;;;;;;;;;;20.20;66.10;96901.25;5127335;27;20472;-80
2021/08/13 00:31:04;;;;;;;;;;;;;;;20.17;66.03;96896.47;5134807;27;20002;-80
2021/08/13 00:33:30;;;;;;;;;;;;;;;20.11;66.68;96903.66;5103879;27;19971;-80
2021/08/13 00:35:56;;;;;;;;;;;;;;;20.03;66.29;96904.22;5131110;27;20070;-80
2021/08/13 00:38:22;;;;;;;;;;;;;;;20.00;66.52;96904.75;5124652;27;20055;-80
2021/08/13 00:40:48;;;;;;;;;;;;;;;19.98;66.64;96912.22;5121783;27;20385;-80
2021/08/13 00:43:15;;;;;;;;;;;;;;;19.96;66.31;96914.34;5134846;27;20335;-80
2021/08/13 00:45:41;;;;;;;;;;;;;;;19.94;66.66;96911.94;5122503;27;19987;-80
2021/08/13 00:48:06;;;;;;;;;;;;;;;19.93;66.43;96913.00;5119533;27;20408;-80
2021/08/13 00:50:33;;;;;;;;;;;;;;;19.93;66.50;96917.50;5133385;27;19979;-80
2021/08/13 00:53:00;;;;;;;;;;;;;;;19.91;66.69;96922.31;5122103;27;19964;-80
2021/08/13 00:55:26;;;;;;;;;;;;;;;19.88;66.69;96928.97;5129098;27;20425;-80
2021/08/13 00:57:52;;;;;;;;;;;;;;;19.87;67.19;96927.38;5107520;28;19974;-80
2021/08/13 01:00:18;;;;;;;;;;;;;;;19.84;67.05;96933.22;5130125;27;20343;-80
2021/08/13 01:02:44;;;;;;;;;;;;;;;19.81;67.67;96920.47;5124246;27;19972;-80
2021/08/13 01:05:10;;;;;;;;;;;;;;;19.75;67.91;96916.19;5122123;28;20000;-80
2021/08/13 01:07:36;;;;;;;;;;;;;;;19.72;67.68;96925.50;5108266;28;19972;-80
2021/08/13 01:10:03;;;;;;;;;;;;;;;19.70;68.18;96927.63;5128649;28;19966;-80
2021/08/13 01:12:29;;;;;;;;;;;;;;;19.68;68.10;96927.88;5105407;28;19970;-80
2021/08/13 01:14:55;;;;;;;;;;;;;;;19.66;67.90;96930.00;5121070;28;20366;-80
2021/08/13 01:17:21;;;;;;;;;;;;;;;19.65;68.17;96924.91;5123568;28;20385;-80
2021/08/13 01:19:48;;;;;;;;;;;;;;;19.63;68.74;96924.38;5095530;28;19967;-80
2021/08/13 01:22:16;;;;;;;;;;;;;;;19.61;68.81;96923.84;5130604;28;19980;-80
2021/08/13 01:24:46;;;;;;;;;;;;;;;19.59;68.80;96925.97;5122447;28;19967;-80
2021/08/13 01:27:21;;;;;;;;;;;;;;;19.57;69.21;96933.41;5117852;28;20010;-80
2021/08/13 01:29:55;;;;;;;;;;;;;;;19.55;68.87;96925.72;5134069;27;20072;-80
2021/08/13 01:32:26;;;;;;;;;;;;;;;19.52;68.58;96922.78;5127048;27;20364;-80
2021/08/13 01:34:54;;;;;;;;;;;;;;;19.50;69.31;96917.72;5138162;27;19963;-80
2021/08/13 01:37:21;;;;;;;;;;;;;;;19.48;69.25;96914.53;5128949;27;19964;-80
2021/08/13 01:39:48;;;;;;;;;;;;;;;19.47;69.57;96926.25;5100710;28;19964;-80
2021/08/13 01:42:15;;;;;;;;;;;;;;;19.45;69.72;96926.50;5105698;27;19982;-80
2021/08/13 01:44:41;;;;;;;;;;;;;;;19.43;69.17;96930.47;5124651;27;19991;-80
2021/08/13 01:47:07;;;;;;;;;;;;;;;19.42;69.52;96920.88;5110486;27;19975;-80
2021/08/13 01:49:34;;;;;;;;;;;;;;;19.41;70.03;96924.63;5136695;27;20416;-80
2021/08/13 01:52:00;;;;;;;;;;;;;;;19.40;69.72;96921.19;5100001;27;19969;-80
2021/08/13 01:54:27;;;;;;;;;;;;;;;19.38;70.06;96917.97;5131978;27;19964;-80
2021/08/13 01:56:54;;;;;;;;;;;;;;;19.37;69.95;96911.03;5110239;28;19971;-80
2021/08/13 01:59:20;;;;;;;;;;;;;;;19.36;70.11;96914.78;5119600;27;19971;-80
2021/08/13 02:01:47;;;;;;;;;;;;;;;19.35;69.98;96915.81;5128453;27;20010;-80
2021/08/13 02:04:19;;;;;;;;;;;;;;;19.35;70.41;96923.81;5113898;27;19968;-79
2021/08/13 02:06:45;;;;;;;;;;;;;;;19.35;70.71;96918.47;5100138;27;19965;-79
2021/08/13 02:09:13;;;;;;;;;;;;;;;19.34;70.40;96922.22;5125447;27;20432;-80
2021/08/13 02:11:39;;;;;;;;;;;;;;;19.34;70.92;96924.06;5107205;27;20340;-80
2021/08/13 02:14:06;;;;;;;;;;;;;;;19.32;70.81;96924.34;5107077;27;19964;-80
2021/08/13 02:16:34;;;;;;;;;;;;;;;19.28;71.01;96909.97;5128417;27;19971;-80
2021/08/13 02:19:09;;;;;;;;;;;;;;;19.23;71.40;96909.94;5130057;27;20328;-80
2021/08/13 02:21:37;;;;;;;;;;;;;;;19.19;71.02;96907.03;5134523;27;20451;-84
2021/08/13 02:24:03;;;;;;;;;;;;;;;19.19;71.23;96903.53;5125480;27;19987;-80
2021/08/13 02:26:29;;;;;;;;;;;;;;;19.19;71.30;96919.50;5123971;27;19960;-80
2021/08/13 02:28:55;;;;;;;;;;;;;;;19.19;71.44;96908.88;5124654;27;19975;-80
2021/08/13 02:31:21;;;;;;;;;;;;;;;19.20;71.74;96902.50;5136573;27;19999;-80
2021/08/13 02:33:47;;;;;;;;;;;;;;;19.21;71.61;96904.91;5124552;27;19964;-80
2021/08/13 02:36:14;;;;;;;;;;;;;;;19.21;71.90;96901.41;5121088;27;20013;-80
2021/08/13 02:38:46;;;;;;;;;;;;;;;19.20;72.02;96905.94;5130703;27;20416;-80
2021/08/13 02:41:13;;;;;;;;;;;;;;;19.18;72.69;96902.75;5106652;28;19983;-80
2021/08/13 02:43:43;;;;;;;;;;;;;;;19.17;72.22;96900.34;5133076;27;20367;-80
2021/08/13 02:46:11;;;;;;;;;;;;;;;19.18;72.31;96901.97;5125485;27;19964;-80
2021/08/13 02:48:38;;;;;;;;;;;;;;;19.17;72.69;96895.84;5124346;27;19968;-80
2021/08/13 02:51:06;;;;;;;;;;;;;;;19.16;71.92;96896.91;5133699;27;19964;-80
2021/08/13 02:53:36;;;;;;;;;;;;;;;19.17;72.13;96903.00;5126498;27;19971;-80
2021/08/13 02:56:04;;;;;;;;;;;;;;;19.17;72.13;96905.66;5130048;27;20340;-80
2021/08/13 02:58:33;;;;;;;;;;;;;;;19.17;72.30;96910.97;5127180;27;19964;-80
2021/08/13 03:01:00;;;;;;;;;;;;;;;19.17;73.15;96905.66;5131221;27;19976;-80
2021/08/13 03:03:30;;;;;;;;;;;;;;;19.16;72.46;96906.75;5123067;27;19975;-80
2021/08/13 03:05:57;;;;;;;;;;;;;;;19.14;73.10;96909.66;5103736;27;20348;-80
2021/08/13 03:08:23;;;;;;;;;;;;;;;19.14;72.78;96904.34;5113725;28;19960;-80
2021/08/13 03:10:50;;;;;;;;;;;;;;;19.14;72.59;96901.66;5098640;28;19964;-79
2021/08/13 03:13:16;;;;;;;;;;;;;;;19.14;72.58;96901.66;5127539;27;19968;-80
2021/08/13 03:15:44;;;;;;;;;;;;;;;19.13;73.04;96904.59;5130189;27;19970;-81
2021/08/13 03:18:10;;;;;;;;;;;;;;;19.12;73.30;96925.06;5116603;27;20359;-80
2021/08/13 03:20:36;;;;;;;;;;;;;;;19.12;73.52;96917.09;5127236;27;19964;-80
2021/08/13 03:23:03;;;;;;;;;;;;;;;19.12;73.35;96908.31;5122873;27;19991;-80
2021/08/13 03:25:29;;;;;;;;;;;;;;;19.10;73.17;96897.94;5108254;28;20293;-80
2021/08/13 03:27:55;;;;;;;;;;;;;;;19.10;72.74;96899.81;5111287;27;20452;-80
2021/08/13 03:30:21;;;;;;;;;;;;;;;19.09;73.13;96900.84;5121899;27;19987;-80
2021/08/13 03:32:48;;;;;;;;;;;;;;;19.09;73.25;96903.50;5124739;27;20355;-80
2021/08/13 03:35:14;;;;;;;;;;;;;;;19.09;73.29;96896.34;5125444;27;19979;-80
2021/08/13 03:37:40;;;;;;;;;;;;;;;19.08;73.65;96909.91;5125997;27;19971;-80
2021/08/13 03:40:07;;;;;;;;;;;;;;;19.05;73.16;96906.69;5125432;27;19964;-80
2021/08/13 03:42:33;;;;;;;;;;;;;;;19.04;73.58;96915.72;5107331;27;19983;-80
2021/08/13 03:44:58;;;;;;;;;;;;;;;19.03;74.40;96919.44;5122861;27;20003;-80
2021/08/13 03:47:24;;;;;;;;;;;;;;;19.01;74.36;96924.22;5123947;27;19999;-80
2021/08/13 03:49:50;;;;;;;;;;;;;;;18.99;73.94;96928.22;5108065;28;19964;-80
2021/08/13 03:52:16;;;;;;;;;;;;;;;18.99;74.13;96930.88;5116957;27;19968;-80
2021/08/13 03:54:43;;;;;;;;;;;;;;;18.98;74.11;96929.25;5135189;27;20321;-80
2021/08/13 03:57:09;;;;;;;;;;;;;;;18.98;74.46;96929.25;5126249;27;19964;-80
2021/08/13 03:59:35;;;;;;;;;;;;;;;18.98;74.29;96927.41;5120332;27;19975;-81
2021/08/13 04:02:01;;;;;;;;;;;;;;;18.98;74.55;96927.41;5097752;27;20613;-80
2021/08/13 04:04:26;;;;;;;;;;;;;;;18.98;75.07;96929.25;5108180;27;19968;-81
2021/08/13 04:06:52;;;;;;;;;;;;;;;18.98;75.30;96924.75;5124169;27;19968;-80
2021/08/13 04:09:18;;;;;;;;;;;;;;;18.98;75.21;96937.22;5115343;27;19972;-79
2021/08/13 04:11:44;;;;;;;;;;;;;;;19.00;75.13;96937.78;5127639;27;19964;-80
2021/08/13 04:14:10;;;;;;;;;;;;;;;18.99;74.58;96936.19;5124995;27;20336;-80
2021/08/13 04:16:36;;;;;;;;;;;;;;;19.01;74.93;96942.03;5128764;27;19964;-80
2021/08/13 04:19:02;;;;;;;;;;;;;;;19.01;74.99;96942.03;5129539;27;19964;-80
2021/08/13 04:21:28;;;;;;;;;;;;;;;19.00;74.94;96943.91;5101883;27;19987;-80
2021/08/13 04:23:54;;;;;;;;;;;;;;;19.01;75.58;96942.84;5127821;27;19967;-80
2021/08/13 04:26:19;;;;;;;;;;;;;;;18.99;75.52;96942.28;5127558;27;19993;-80
2021/08/13 04:28:45;;;;;;;;;;;;;;;18.96;75.37;96939.34;5119537;27;20395;-80
2021/08/13 04:31:11;;;;;;;;;;;;;;;18.94;75.31;96944.94;5125403;27;19984;-80
2021/08/13 04:33:37;;;;;;;;;;;;;;;18.94;75.82;96949.44;5106593;28;19968;-80
2021/08/13 04:36:03;;;;;;;;;;;;;;;18.92;75.57;96949.72;5111804;27;19968;-80
2021/08/13 04:38:30;;;;;;;;;;;;;;;18.93;75.42;96947.84;5111981;28;19968;-80
2021/08/13 04:40:56;;;;;;;;;;;;;;;18.92;75.69;96949.72;5096494;28;19964;-80
2021/08/13 04:43:22;;;;;;;;;;;;;;;18.91;75.87;96945.44;5126822;27;20014;-80
2021/08/13 04:45:48;;;;;;;;;;;;;;;18.91;75.66;96952.63;5115474;27;20006;-80
2021/08/13 04:48:13;;;;;;;;;;;;;;;18.91;75.60;96958.72;5107302;27;20064;-80
2021/08/13 04:50:39;;;;;;;;;;;;;;;18.91;75.63;96963.25;5129365;27;20017;-80
2021/08/13 04:53:05;;;;;;;;;;;;;;;18.92;75.53;96956.88;5106735;28;20413;-80
2021/08/13 04:55:31;;;;;;;;;;;;;;;18.92;76.01;96956.88;5106463;27;19968;-79
2021/08/13 04:57:57;;;;;;;;;;;;;;;18.91;76.28;96961.41;5123507;27;20015;-80
2021/08/13 05:00:23;;;;;;;;;;;;;;;18.91;75.77;96963.25;5122399;27;19974;-80
2021/08/13 05:02:49;;;;;;;;;;;;;;;18.93;76.08;96961.94;5128097;27;20027;-80
2021/08/13 05:05:15;;;;;;;;;;;;;;;18.93;76.21;96969.91;5110133;28;20017;-80
2021/08/13 05:07:41;;;;;;;;;;;;;;;18.94;76.38;96965.38;5126122;27;19964;-80
2021/08/13 05:10:07;;;;;;;;;;;;;;;18.96;76.03;96968.59;5104802;28;20520;-80
2021/08/13 05:12:33;;;;;;;;;;;;;;;18.99;76.52;96978.72;5107355;28;20334;-80
2021/08/13 05:14:59;;;;;;;;;;;;;;;19.04;76.56;96970.75;5104291;28;19972;-80
2021/08/13 05:17:24;;;;;;;;;;;;;;;19.08;76.56;96963.84;5108366;28;20373;-83
2021/08/13 05:19:50;;;;;;;;;;;;;;;19.19;76.05;96968.19;5116131;28;19964;-80
2021/08/13 05:22:16;;;;;;;;;;;;;;;19.39;76.15;96969.31;5121345;28;19983;-82
2021/08/13 05:24:42;;;;;;;;;;;;;;;19.70;75.96;96964.03;5122492;28;19960;-82
2021/08/13 05:27:08;;;;;;;;;;;;;;;20.04;74.96;96959.06;5106918;28;19968;-82
2021/08/13 05:29:34;;;;;;;;;;;;;;;20.28;74.26;96954.00;5123964;28;19992;-83
2021/08/13 05:32:00;;;;;;;;;;;;;;;20.57;73.16;96958.75;5120168;28;19968;-82
2021/08/13 05:34:26;;;;;;;;;;;;;;;20.90;72.63;96954.72;5123012;28;19971;-82
2021/08/13 05:36:52;;;;;;;;;;;;;;;21.21;70.78;96952.72;5114898;28;20425;-82
2021/08/13 05:39:18;;;;;;;;;;;;;;;21.50;70.19;96952.06;5115766;28;19976;-82
2021/08/13 05:41:44;;;;;;;;;;;;;;;21.81;69.14;96952.69;5115394;28;19976;-82
2021/08/13 05:44:10;;;;;;;;;;;;;;;22.05;68.21;96950.13;5119462;28;19975;-82
2021/08/13 05:46:36;;;;;;;;;;;;;;;22.35;67.33;96950.97;5130482;28;20401;-82
2021/08/13 05:49:02;;;;;;;;;;;;;;;22.62;65.63;96950.44;5103611;28;19968;-80
2021/08/13 05:51:28;;;;;;;;;;;;;;;22.92;64.97;96945.03;5129651;28;19964;-80
2021/08/13 05:53:54;;;;;;;;;;;;;;;23.24;64.81;96947.88;5104197;28;19963;-79
2021/08/13 05:56:19;;;;;;;;;;;;;;;23.54;64.05;96943.22;5114173;28;20443;-80
2021/08/13 05:58:45;;;;;;;;;;;;;;;23.83;62.16;96940.41;5121335;28;19968;-80
2021/08/13 06:01:11;;;;;;;;;;;;;;;24.05;62.17;96947.03;5122608;28;19972;-80
2021/08/13 06:03:37;;;;;;;;;;;;;;;24.23;61.56;96940.84;5106890;28;19984;-80
2021/08/13 06:06:03;;;;;;;;;;;;;;;24.40;60.49;96942.16;5126902;28;19970;-80
2021/08/13 06:08:29;;;;;;;;;;;;;;;24.54;59.95;96948.38;5108405;28;20354;-80
2021/08/13 06:10:55;;;;;;;;;;;;;;;24.65;58.97;96946.28;5129077;28;19964;-80
2021/08/13 06:13:21;;;;;;;;;;;;;;;24.73;59.27;96960.91;5123941;28;19971;-80
2021/08/13 06:15:47;;;;;;;;;;;;;;;24.73;56.74;96942.13;5123109;28;19964;-80
2021/08/13 06:18:13;;;;;;;;;;;;;;;24.74;57.99;96944.53;5110331;27;19974;-80
2021/08/13 06:20:39;;;;;;;;;;;;;;;24.81;57.70;96952.97;5128363;27;19968;-82
2021/08/13 06:23:05;;;;;;;;;;;;;;;24.77;58.39;96951.97;5119668;27;20036;-80
2021/08/13 06:25:30;;;;;;;;;;;;;;;24.83;57.68;96950.00;5116230;27;20075;-80
2021/08/13 06:27:56;;;;;;;;;;;;;;;25.00;58.29;96966.28;5105120;27;19989;-80
2021/08/13 06:30:23;;;;;;;;;;;;;;;25.13;56.89;96948.59;5127675;27;19998;-80
2021/08/13 06:32:49;;;;;;;;;;;;;;;25.09;56.66;96953.78;5131768;27;19982;-80
2021/08/13 06:35:15;;;;;;;;;;;;;;;25.07;56.31;96955.16;5126418;27;20339;-79
2021/08/13 06:37:51;;;;;;;;;;;;;;;25.24;57.07;96951.88;5129279;27;20435;-80
2021/08/13 06:40:18;;;;;;;;;;;;;;;25.44;57.58;96962.19;5131911;27;19967;-82
2021/08/13 06:42:44;;;;;;;;;;;;;;;25.56;56.18;96944.78;5126197;27;20344;-80
2021/08/13 06:45:11;;;;;;;;;;;;;;;25.61;55.96;96953.50;5116759;27;19967;-80
2021/08/13 06:47:37;;;;;;;;;;;;;;;25.68;55.40;96943.16;5120189;27;19963;-80
2021/08/13 06:50:04;;;;;;;;;;;;;;;25.60;55.59;96951.94;5107815;27;19968;-80
2021/08/13 06:52:31;;;;;;;;;;;;;;;25.58;55.29;96956.81;5125718;27;19970;-80
2021/08/13 06:54:57;;;;;;;;;;;;;;;25.45;55.67;96955.75;5117671;27;19975;-80
2021/08/13 06:57:23;;;;;;;;;;;;;;;25.51;55.74;96961.78;5125742;27;19968;-80
2021/08/13 06:59:49;;;;;;;;;;;;;;;25.53;56.71;96964.97;5123764;27;20428;-80
2021/08/13 07:02:15;;;;;;;;;;;;;;;25.53;56.65;96967.66;5110545;27;19998;-80
2021/08/13 07:04:41;;;;;;;;;;;;;;;25.63;56.31;96966.66;5109424;27;19990;-80
2021/08/13 07:07:20;;;;;;;;;;;;;;;25.87;55.75;96951.06;5128381;27;19971;-81
2021/08/13 07:09:47;;;;;;;;;;;;;;;25.98;54.21;96943.56;5128839;27;19960;-80
2021/08/13 07:12:14;;;;;;;;;;;;;;;25.98;55.40;96962.38;5106855;27;20424;-80
2021/08/13 07:14:40;;;;;;;;;;;;;;;25.96;55.31;96964.59;5122888;27;19960;-80
2021/08/13 07:17:06;;;;;;;;;;;;;;;26.05;53.27;96945.81;5126798;27;20344;-80
2021/08/13 07:19:31;;;;;;;;;;;;;;;26.11;54.74;96956.16;5131658;27;19960;-80
2021/08/13 07:21:57;;;;;;;;;;;;;;;26.10;52.93;96933.06;5104219;27;19990;-80
2021/08/13 07:24:23;;;;;;;;;;;;;;;26.26;54.90;96951.50;5120258;27;19972;-80
2021/08/13 07:26:49;;;;;;;;;;;;;;;26.39;54.07;96947.13;5125293;27;20408;-80
2021/08/13 07:29:16;;;;;;;;;;;;;;;26.46;53.24;96940.22;5125017;27;19964;-80
2021/08/13 07:31:42;;;;;;;;;;;;;;;26.40;53.35;96929.91;5129021;27;19975;-79
2021/08/13 07:34:08;;;;;;;;;;;;;;;26.42;53.36;96935.78;5120202;27;20339;-80
2021/08/13 07:36:34;;;;;;;;;;;;;;;26.58;54.07;96950.44;5110397;28;20429;-80
2021/08/13 07:38:59;;;;;;;;;;;;;;;26.69;53.17;96940.19;5112614;27;20409;-80
2021/08/13 07:41:26;;;;;;;;;;;;;;;26.83;53.44;96950.84;5126181;27;21012;-80
2021/08/13 07:43:52;;;;;;;;;;;;;;;26.99;52.55;96938.56;5129975;27;19979;-80
2021/08/13 07:46:18;;;;;;;;;;;;;;;27.00;50.98;96923.22;5112553;27;20480;-80
2021/08/13 07:48:44;;;;;;;;;;;;;;;26.94;52.34;96949.47;5107758;27;19964;-79
2021/08/13 07:51:10;;;;;;;;;;;;;;;26.88;50.46;96937.28;5119698;27;19964;-80
2021/08/13 07:53:36;;;;;;;;;;;;;;;26.90;52.27;96951.22;5125516;27;19974;-80
2021/08/13 07:56:02;;;;;;;;;;;;;;;27.07;52.08;96953.97;5116629;27;19964;-80
2021/08/13 07:58:28;;;;;;;;;;;;;;;27.22;51.62;96944.69;5091431;27;19964;-81
2021/08/13 08:00:54;;;;;;;;;;;;;;;27.32;51.69;96951.69;5107181;27;20094;-80
2021/08/13 08:03:20;;;;;;;;;;;;;;;27.52;51.18;96944.88;5128211;27;19979;-80
2021/08/13 08:05:45;;;;;;;;;;;;;;;27.63;50.89;96938.06;5104026;28;20388;-80
2021/08/13 08:08:11;;;;;;;;;;;;;;;27.69;50.63;96936.00;5132133;27;20339;-81
2021/08/13 08:10:37;;;;;;;;;;;;;;;27.70;49.89;96946.47;5121047;27;20051;-80
2021/08/13 08:13:03;;;;;;;;;;;;;;;27.73;51.01;96948.53;5128326;27;19968;-80
2021/08/13 08:15:29;;;;;;;;;;;;;;;27.92;51.76;96959.03;5115188;27;20009;-80
2021/08/13 08:17:55;;;;;;;;;;;;;;;28.05;49.20;96934.91;5103941;27;19960;-80
2021/08/13 08:20:21;;;;;;;;;;;;;;;27.93;49.32;96936.34;5126141;27;19964;-80
2021/08/13 08:22:47;;;;;;;;;;;;;;;27.81;50.36;96946.94;5125419;27;19975;-80
2021/08/13 08:25:13;;;;;;;;;;;;;;;27.89;50.82;96940.00;5125063;27;19964;-80
2021/08/13 08:27:39;;;;;;;;;;;;;;;28.02;50.48;96952.53;5130663;27;19968;-80
2021/08/13 08:30:06;;;;;;;;;;;;;;;28.09;50.83;96950.13;5095453;27;19992;-80
2021/08/13 08:32:32;;;;;;;;;;;;;;;28.17;49.03;96945.06;5077119;28;19966;-80
2021/08/13 08:34:58;;;;;;;;;;;;;;;28.18;49.66;96970.91;5066085;28;19972;-80
2021/08/13 08:37:23;;;;;;;;;;;;;;;28.16;50.18;96973.13;5063333;28;19968;-79
2021/08/13 08:39:49;;;;;;;;;;;;;;;28.33;50.40;96976.59;5085026;28;19969;-80
2021/08/13 08:42:16;;;;;;;;;;;;;;;28.51;49.93;96963.09;5074659;28;20075;-80
2021/08/13 08:44:42;;;;;;;;;;;;;;;28.31;48.76;96951.06;5085778;28;19971;-80
2021/08/13 08:47:09;;;;;;;;;;;;;;;28.12;49.42;96962.97;5084488;28;20047;-80
2021/08/13 08:49:42;;;;;;;;;;;;;;;27.99;49.66;96968.53;5081688;28;19960;-79
2021/08/13 08:52:08;;;;;;;;;;;;;;;27.98;49.89;96965.06;5101867;28;19980;-79
2021/08/13 08:54:35;;;;;;;;;;;;;;;28.17;50.00;96972.03;5087379;28;19959;-79
2021/08/13 08:57:03;;;;;;;;;;;;;;;28.32;51.31;96976.91;5085629;28;19971;-79
2021/08/13 08:59:29;;;;;;;;;;;;;;;28.57;49.18;96944.81;5084580;28;19972;-79
2021/08/13 09:01:55;;;;;;;;;;;;;;;28.60;49.44;96953.06;5081777;28;19965;-80
2021/08/13 09:04:22;;;;;;;;;;;;;;;28.48;46.95;96940.22;5083343;28;19969;-79
2021/08/13 09:06:48;;;;;;;;;;;;;;;28.42;48.84;96957.69;5091574;28;20325;-79
2021/08/13 09:09:14;;;;;;;;;;;;;;;28.45;48.99;96965.13;5083334;28;19976;-79
2021/08/13 09:11:41;;;;;;;;;;;;;;;28.54;47.73;96955.16;5074016;28;20055;-79
2021/08/13 09:14:09;;;;;;;;;;;;;;;28.70;50.06;96977.00;5074131;28;19965;-79
2021/08/13 09:16:36;;;;;;;;;;;;;;;28.85;48.63;96954.09;5101853;28;19971;-79
2021/08/13 09:19:05;;;;;;;;;;;;;;;29.00;48.28;96950.06;5084491;28;19965;-78
2021/08/13 09:21:32;;;;;;;;;;;;;;;29.04;47.07;96951.00;5086442;28;20422;-78
2021/08/13 09:24:01;;;;;;;;;;;;;;;29.15;47.36;96946.03;5085027;28;20441;-78
2021/08/13 09:26:28;;;;;;;;;;;;;;;29.23;46.89;96949.78;5067837;28;20418;-78
2021/08/13 09:29:02;;;;;;;;;;;;;;;29.28;47.90;96957.72;5084330;28;20026;-78
2021/08/13 09:31:29;;;;;;;;;;;;;;;29.22;47.16;96950.91;5101357;28;19975;-78
2021/08/13 09:33:56;;;;;;;;;;;;;;;29.21;47.28;96960.13;5121053;28;19998;-78
2021/08/13 09:36:24;;;;;;;;;;;;;;;29.24;47.29;96956.78;5105478;28;19972;-78
2021/08/13 09:39:00;;;;;;;;;;;;;;;29.29;46.78;96945.78;5105346;28;19971;-78
2021/08/13 09:41:26;;;;;;;;;;;;;;;29.31;46.80;96938.91;5108400;28;19968;-79
2021/08/13 09:43:53;;;;;;;;;;;;;;;29.24;44.98;96943.28;5100285;28;20029;-78
2021/08/13 09:46:19;;;;;;;;;;;;;;;29.23;46.25;96947.91;5105146;28;19968;-78
2021/08/13 09:48:45;;;;;;;;;;;;;;;29.26;46.26;96946.44;5104755;28;19972;-78
2021/08/13 09:51:28;;;;;;;;;;;;;;;29.39;48.27;96967.00;5107988;28;19964;-79
2021/08/13 09:53:58;;;;;;;;;;;;;;;29.55;46.17;96964.53;5105010;28;19960;-78
2021/08/13 09:56:25;;;;;;;;;;;;;;;29.60;46.36;96963.53;5105994;28;19979;-78
2021/08/13 09:58:51;;;;;;;;;;;;;;;29.60;45.58;96958.13;5110595;28;19961;-78
2021/08/13 10:01:34;;;;;;;;;;;;;;;29.48;45.67;96962.34;5106577;28;20343;-78
2021/08/13 10:04:01;;;;;;;;;;;;;;;29.51;45.42;96945.47;5106719;28;19983;-78
2021/08/13 10:06:29;;;;;;;;;;;;;;;29.61;46.80;96955.13;5106376;28;19968;-79
2021/08/13 10:08:55;;;;;;;;;;;;;;;29.70;45.33;96942.34;5104910;28;19960;-78
2021/08/13 10:11:21;;;;;;;;;;;;;;;29.87;45.75;96954.91;5109887;28;19964;-78
2021/08/13 10:13:47;;;;;;;;;;;;;;;29.99;44.37;96940.69;5108914;28;19968;-78
2021/08/13 10:16:20;;;;;;;;;;;;;;;30.01;44.13;96948.44;5098260;28;20022;-80
2021/08/13 10:18:47;;;;;;;;;;;;;;;29.92;42.31;96943.09;5106837;28;19965;-80
2021/08/13 10:21:13;;;;;;;;;;;;;;;29.91;43.44;96950.44;5110549;28;19960;-80
2021/08/13 10:23:39;;;;;;;;;;;;;;;29.98;45.05;96963.41;5106226;28;20037;-80
2021/08/13 10:26:05;;;;;;;;;;;;;;;30.00;43.56;96954.97;5102917;28;19964;-80
2021/08/13 10:28:31;;;;;;;;;;;;;;;29.91;44.05;96974.78;5118653;27;20341;-80
2021/08/13 10:30:58;;;;;;;;;;;;;;;29.73;44.11;96976.84;5113617;28;19996;-80
2021/08/13 10:33:24;;;;;;;;;;;;;;;29.60;45.14;96988.66;5102321;28;19975;-80
2021/08/13 10:35:54;;;;;;;;;;;;;;;29.45;43.99;96971.09;5105146;28;20394;-82
2021/08/13 10:38:21;;;;;;;;;;;;;;;29.60;44.23;96979.75;5111827;28;20429;-80
2021/08/13 10:40:47;;;;;;;;;;;;;;;29.72;43.28;96964.44;5109911;28;19991;-79
2021/08/13 10:43:14;;;;;;;;;;;;;;;29.87;44.43;96967.66;5100702;28;19980;-80
2021/08/13 10:45:41;;;;;;;;;;;;;;;29.90;43.08;96965.09;5121934;27;19968;-80
2021/08/13 10:48:14;;;;;;;;;;;;;;;29.97;43.93;96969.19;5112557;28;19971;-81
2021/08/13 10:50:41;;;;;;;;;;;;;;;30.14;44.51;96972.50;5093316;28;19964;-80
2021/08/13 10:53:26;;;;;;;;;;;;;;;30.32;42.47;96948.00;5102842;28;19964;-80
2021/08/13 10:55:53;;;;;;;;;;;;;;;30.42;43.37;96963.81;5125252;27;19967;-80
2021/08/13 10:58:39;;;;;;;;;;;;;;;30.48;41.79;96959.00;5103564;28;19968;-80
2021/08/13 11:01:06;;;;;;;;;;;;;;;30.65;42.58;96964.22;5104409;28;19979;-80
2021/08/13 11:03:33;;;;;;;;;;;;;;;30.80;41.45;96951.94;5105028;28;19984;-79
2021/08/13 11:05:59;;;;;;;;;;;;;;;30.91;41.40;96955.81;5108301;28;19969;-80
2021/08/13 11:08:40;;;;;;;;;;;;;;;31.06;41.74;96950.84;5107775;28;19968;-80
2021/08/13 11:11:10;;;;;;;;;;;;;;;31.18;40.57;96950.81;5115850;27;19964;-80
2021/08/13 11:13:37;;;;;;;;;;;;;;;31.32;42.28;96956.69;5101576;28;19971;-80
2021/08/13 11:16:24;;;;;;;;;;;;;;;31.53;41.19;96955.78;5130351;27;19968;-80
2021/08/13 11:18:57;;;;;;;;;;;;;;;31.79;40.81;96962.72;5078586;28;19968;-80
2021/08/13 11:21:32;;;;;;;;;;;;;;;31.80;40.13;96964.31;5111461;28;19971;-80
2021/08/13 11:23:59;;;;;;;;;;;;;;;31.62;40.87;96969.97;5103648;27;20476;-80
2021/08/13 11:26:44;;;;;;;;;;;;;;;31.35;40.35;96956.03;5102056;28;20321;-80
2021/08/13 11:29:34;;;;;;;;;;;;;;;31.04;40.35;96956.59;5102967;28;19972;-80
2021/08/13 11:32:18;;;;;;;;;;;;;;;30.75;40.76;96963.00;5136207;27;19971;-80
2021/08/13 11:34:45;;;;;;;;;;;;;;;30.64;42.15;96984.31;5136496;27;20424;-79
2021/08/13 11:37:29;;;;;;;;;;;;;;;30.48;42.30;96989.56;5127883;27;19963;-80
2021/08/13 11:39:55;;;;;;;;;;;;;;;30.31;42.92;96978.91;5108577;28;19967;-80
2021/08/13 11:42:22;;;;;;;;;;;;;;;30.28;42.60;96976.81;5119084;27;20050;-81
2021/08/13 11:44:51;;;;;;;;;;;;;;;30.46;42.99;96972.84;5113481;28;20328;-81
2021/08/13 11:47:20;;;;;;;;;;;;;;;30.63;41.79;96962.97;5127523;27;19974;-80
2021/08/13 11:49:46;;;;;;;;;;;;;;;30.86;43.01;96974.16;5106523;27;20393;-81
2021/08/13 11:52:17;;;;;;;;;;;;;;;31.09;40.67;96959.06;5121604;27;19964;-80
2021/08/13 11:54:43;;;;;;;;;;;;;;;31.23;40.69;96958.75;5125184;27;19968;-80
2021/08/13 11:57:12;;;;;;;;;;;;;;;31.44;39.43;96957.84;5107475;28;19975;-81
2021/08/13 11:59:38;;;;;;;;;;;;;;;31.44;39.35;96955.91;5125713;27;19968;-80
2021/08/13 12:02:05;;;;;;;;;;;;;;;31.24;39.41;96952.19;5128875;27;19975;-80
2021/08/13 12:04:31;;;;;;;;;;;;;;;31.21;40.50;96966.41;5123670;27;19984;-80
2021/08/13 12:07:00;;;;;;;;;;;;;;;31.38;40.87;96967.31;5099272;27;20051;-80
2021/08/13 12:09:37;;;;;;;;;;;;;;;31.29;39.18;96960.09;5131207;27;19968;-81
2021/08/13 12:12:23;;;;;;;;;;;;;;;31.37;41.41;96980.06;5127949;27;19964;-80
2021/08/13 12:14:50;;;;;;;;;;;;;;;31.50;39.93;96970.81;5111555;27;19966;-80
2021/08/13 12:17:16;;;;;;;;;;;;;;;31.63;39.44;96968.09;5126069;27;19964;-80
2021/08/13 12:19:42;;;;;;;;;;;;;;;31.78;40.21;96966.56;5112521;28;19960;-80
2021/08/13 12:22:08;;;;;;;;;;;;;;;31.87;38.21;96956.38;5121135;27;20409;-80
2021/08/13 12:24:35;;;;;;;;;;;;;;;31.98;38.59;96962.88;5124436;27;19987;-80
2021/08/13 12:27:05;;;;;;;;;;;;;;;32.02;38.22;96965.72;5132376;27;19968;-80
2021/08/13 12:29:31;;;;;;;;;;;;;;;32.10;37.15;96962.84;5108451;27;19991;-80
2021/08/13 12:31:59;;;;;;;;;;;;;;;32.21;37.40;96963.13;5113290;27;19976;-80
2021/08/13 12:34:25;;;;;;;;;;;;;;;32.26;38.12;96968.34;5125771;27;19963;-81
2021/08/13 12:37:02;;;;;;;;;;;;;;;32.26;36.57;96962.13;5118799;27;19964;-81
2021/08/13 12:39:28;;;;;;;;;;;;;;;32.29;36.98;96964.13;5103608;28;20427;-80
2021/08/13 12:41:54;;;;;;;;;;;;;;;32.33;36.96;96965.00;5104573;28;20452;-80
2021/08/13 12:44:20;;;;;;;;;;;;;;;32.42;36.45;96978.41;5127446;27;19988;-80
2021/08/13 12:46:46;;;;;;;;;;;;;;;32.53;36.70;96972.16;5113229;27;20413;-80
2021/08/13 12:49:13;;;;;;;;;;;;;;;32.65;35.83;96967.78;5127246;27;20447;-81